x

North Michigan- Halfway Between North Manitou And Washington Islands. (45002) Wave Buoy

8:50am - Thu 2nd Oct 2014 All times are CDT. -5 hours from GMT.

  • Sig Wave height 1.6ft
  • Swell Direction
  • Peak Period 5s
  • Average Period 3s
  • Wind
    13mph, 16mph gusts
  • Sea Temp 58°f
  • Air Temp 57°f
  • Sea Pressure 1012.2mb
  • North Michigan- Halfway Between North Manitou And Washington Islands.
  • North Michigan- Halfway Between North Manitou And Washington Islands.

More Historic Weather Station data

Upgrade to MSW Pro to gain access to the past 30 days of data for over 8000 Wavebouys and Weather Stations around the globe.

Join Pro

Comparision Forecast

View Surf forecast
   
Thu 10/02 8:50am 1.6ft 5s 3s 13 16 mph 1012.2mb 58f 57f
7:50am 1.6ft 4s 4s 16
mph
1012.4mb 58f 58f
6:50am 1.6ft 5s 4s 13 18 mph 1012.7mb 58f 57f
5:50am 1.6ft 5s 4s 11 13 mph 1012.8mb 58f 56f
4:50am 2ft 5s 4s 9 11 mph 1012.8mb 58f 57f
3:50am 2ft 5s 4s 13 16 mph 1013mb 58f 58f
2:50am 1.6ft 5s 4s 11 13 mph 1013.4mb 58f 58f
1:50am 2ft 5s 4s 11 13 mph 1013.5mb 58f 58f
12:50am 1.6ft 5s 4s 13 16 mph 1013.3mb 58f 58f
Wed 10/01 11:50pm 1.6ft 4s 4s 11 13 mph 1013.8mb 58f 58f
10:50pm 1.3ft 4s 3s 11 13 mph 1014.5mb 58f 57f
9:50pm 1.3ft 4s 3s 11 13 mph 1014.8mb 58f 57f
8:50pm 1ft 4s 3s 11 13 mph 1014.6mb 58f 56f
7:50pm 1ft 3s 3s 9 11 mph 1014.6mb 58f 56f
6:50pm 1ft 3s 3s 7
mph
1014.7mb 58f 56f
5:50pm  -   -   -  9 11 mph 1014.7mb 58f 56f
4:50pm 1ft 3s 3s 4 7 mph 1014.5mb 58f 56f
3:50pm 1ft 3s 3s 9
mph
1015.2mb 58f 56f
2:50pm 1ft 3s 3s 9 11 mph 1015.5mb 58f 55f
1:50pm 1ft 3s 3s 11 13 mph 1016.2mb 58f 55f
12:50pm 1ft 3s 3s 13 16 mph 1017mb 58f 55f
11:50am 0.7ft  -  3s 13
mph
1018mb 58f 55f
10:50am 1ft 3s 3s 7 9 mph 1018mb 58f 55f
9:50am 1ft 3s 3s 9 11 mph 1018mb 58f 55f
8:50am 1.3ft 3s 3s 9 11 mph 1018mb 58f 55f
7:50am 1.3ft 3s 3s 11 13 mph 1017.8mb 58f 55f
6:50am 1.3ft 3s 3s 13 16 mph 1017.3mb 58f 54f
5:50am 1ft 3s 3s 11 13 mph 1017.2mb 58f 54f
4:50am 1ft 3s 3s 11
mph
1017.2mb 58f 54f
3:50am 1ft 3s 3s 11 13 mph 1017.5mb 58f 54f
2:50am 1.3ft 3s 3s 11 16 mph 1017.6mb 58f 54f
1:50am 1.3ft 4s 3s 11 13 mph 1018.1mb 58f 54f
12:50am 1.6ft 4s 3s 13 16 mph 1018mb 58f 54f
Tue 09/30 11:50pm 2ft 4s 3s 16 18 mph 1018mb 58f 55f
10:50pm 1.6ft 3s 3s 16 18 mph 1018mb 58f 55f
9:50pm 1ft 3s 3s 16 18 mph 1017.8mb 58f 55f
8:50pm 0.7ft  -  3s 13 16 mph 1018mb 58f 55f
7:50pm 0.7ft  -  3s 9
mph
1018.1mb 58f 54f
6:50pm 0.7ft  -  3s 11
mph
1017.9mb 58f 53f
5:50pm 1ft 3s 3s 7 9 mph 1018.1mb 58f 53f
4:50pm 1ft 4s 3s 7 11 mph 1017.8mb 58f 52f
3:50pm 1.3ft 4s 3s 9 13 mph 1018mb 58f 51f
2:50pm 1.3ft 4s 3s 9 13 mph 1018.1mb 58f 50f
1:50pm 1.6ft 4s 3s 9 11 mph 1018.2mb 58f 50f
12:50pm 2ft 4s 4s 11 16 mph 1018.5mb 58f 49f
11:50am 2.5ft 4s 4s 13 18 mph 1019mb 58f 48f
10:50am 2.5ft 5s 4s 16 18 mph 1018.7mb 58f 48f
9:50am 2.5ft 4s 4s 16 20 mph 1018.7mb 58f 47f
8:50am 3ft 5s 4s 18 22 mph 1018.5mb 58f 47f
7:50am 3.5ft 5s 4s 18 22 mph 1018.4mb 58f 47f
6:50am 3.5ft 5s 4s 18 22 mph 1018.2mb 58f 47f
5:50am 4ft 5s 4s 18 22 mph 1018.2mb 58f 47f
4:50am 4ft 5s 4s 22 27 mph 1017.9mb 58f 46f
3:50am 4.5ft 5s 4s 20 27 mph 1017.8mb 58f 46f
2:50am 5ft 5s 4s 22 29 mph 1017.5mb 58f 47f
1:50am 4.5ft 6s 4s 22 29 mph 1017.8mb 58f 47f
12:50am 4.5ft 5s 4s 25 31 mph 1017.5mb 58f 47f
Mon 09/29 11:50pm 4ft 5s 4s 22 29 mph 1017.3mb 58f 47f
10:50pm 4.5ft 6s 4s 25 29 mph 1017.4mb 58f 47f
9:50pm 4.5ft 5s 4s 25 29 mph 1017.5mb 58f 47f
8:50pm 5ft 6s 4s 29 34 mph 1017.3mb 58f 47f
7:50pm 5ft 6s 4s 27 34 mph 1017.5mb 58f 47f
6:50pm 5ft 5s 4s 27 31 mph 1017.1mb 59f 48f
5:50pm 4.5ft 5s 4s 27 34 mph 1016.8mb 59f 49f
4:50pm 4.5ft 5s 4s 29 34 mph 1016.3mb 59f 49f
3:50pm 4ft 5s 4s 27 34 mph 1016mb 59f 50f
2:50pm 3.5ft 5s 4s 27 31 mph 1015.8mb 59f 51f
1:50pm 3.5ft 4s 4s 25 29 mph 1015.9mb 59f 49f
12:50pm 3.5ft 4s 4s 25 29 mph 1016mb 59f 51f
11:50am 3ft 4s 4s 20 22 mph 1016.4mb 59f 51f
10:50am 2.5ft 4s 3s 20 27 mph 1015.9mb 59f 52f
9:50am 2.5ft 4s 3s 20 22 mph 1015.9mb 59f 53f
8:50am 1.6ft 3s 3s 18 20 mph 1016mb 59f 54f
7:50am 1.3ft 3s 3s 16 20 mph 1015.5mb 59f 55f
6:50am 1ft 3s 3s 16 18 mph 1015.2mb 59f 57f
5:50am 1ft 3s 3s 7
mph
1014.9mb 59f 60f
4:50am 1ft 3s 3s 9
mph
1014.8mb 59f 61f
2:50am 1ft 3s 3s 11 13 mph 1015.1mb 59f 61f
1:50am 1ft 3s 3s 11 13 mph 1015.5mb 59f 61f
12:50am 1ft 3s 3s 13
mph
1015.8mb 59f 61f
Sun 09/28 11:50pm 0.7ft  -  3s 13
mph
1016.2mb 59f 62f
10:50pm 0.7ft  -  3s 13
mph
1016.7mb 60f 62f
9:50pm 0.7ft  -  3s 11 13 mph 1017.3mb 60f 62f
8:50pm 1ft 3s 3s 9 11 mph 1017.6mb 60f 62f
7:50pm 1ft 3s 3s 11
mph
1017.5mb 60f 63f
6:50pm 1ft 3s 3s 11 13 mph 1017.4mb 60f 62f
5:50pm 1ft 3s 3s 11 13 mph 1017.6mb 60f 62f
4:50pm 1ft 3s 3s 11 13 mph 1018.1mb 60f 62f
3:50pm 1ft 3s 3s 11
mph
1018.8mb 60f 62f